sensor_id;sensor_type;location;lat;lon;timestamp;P1;durP1;ratioP1;P2;durP2;ratioP2
19905;SDS011;10115;50.906;4.438;2023-02-28T00:01:17;7.60;;;7.30;;
19905;SDS011;10115;50.906;4.438;2023-02-28T00:03:45;11.37;;;9.40;;
19905;SDS011;10115;50.906;4.438;2023-02-28T00:06:10;9.17;;;8.60;;
19905;SDS011;10115;50.906;4.438;2023-02-28T00:08:37;9.97;;;9.23;;
19905;SDS011;10115;50.906;4.438;2023-02-28T00:11:03;10.87;;;10.20;;
19905;SDS011;10115;50.906;4.438;2023-02-28T00:13:34;8.20;;;7.80;;
19905;SDS011;10115;50.906;4.438;2023-02-28T00:16:03;10.80;;;10.17;;
19905;SDS011;10115;50.906;4.438;2023-02-28T00:18:31;10.23;;;9.70;;
19905;SDS011;10115;50.906;4.438;2023-02-28T00:20:57;10.17;;;9.67;;
19905;SDS011;10115;50.906;4.438;2023-02-28T00:23:24;9.40;;;8.90;;
19905;SDS011;10115;50.906;4.438;2023-02-28T00:25:50;9.27;;;8.87;;
19905;SDS011;10115;50.906;4.438;2023-02-28T00:28:16;9.13;;;8.63;;
19905;SDS011;10115;50.906;4.438;2023-02-28T00:30:42;9.27;;;8.77;;
19905;SDS011;10115;50.906;4.438;2023-02-28T00:33:08;9.23;;;8.83;;
19905;SDS011;10115;50.906;4.438;2023-02-28T00:35:34;9.27;;;8.57;;
19905;SDS011;10115;50.906;4.438;2023-02-28T00:38:00;8.53;;;7.90;;
19905;SDS011;10115;50.906;4.438;2023-02-28T00:40:25;7.87;;;7.47;;
19905;SDS011;10115;50.906;4.438;2023-02-28T00:42:51;10.17;;;9.57;;
19905;SDS011;10115;50.906;4.438;2023-02-28T00:45:17;9.37;;;8.57;;
19905;SDS011;10115;50.906;4.438;2023-02-28T00:47:43;10.03;;;9.20;;
19905;SDS011;10115;50.906;4.438;2023-02-28T00:50:08;11.60;;;10.43;;
19905;SDS011;10115;50.906;4.438;2023-02-28T00:52:35;9.87;;;9.37;;
19905;SDS011;10115;50.906;4.438;2023-02-28T00:55:00;9.23;;;8.73;;
19905;SDS011;10115;50.906;4.438;2023-02-28T00:57:26;8.67;;;8.13;;
19905;SDS011;10115;50.906;4.438;2023-02-28T00:59:52;11.73;;;10.77;;
19905;SDS011;10115;50.906;4.438;2023-02-28T01:02:19;9.40;;;8.57;;
19905;SDS011;10115;50.906;4.438;2023-02-28T01:04:46;10.30;;;9.47;;
19905;SDS011;10115;50.906;4.438;2023-02-28T01:07:12;10.33;;;9.50;;
19905;SDS011;10115;50.906;4.438;2023-02-28T01:09:39;9.70;;;9.20;;
19905;SDS011;10115;50.906;4.438;2023-02-28T01:12:06;9.70;;;8.93;;
19905;SDS011;10115;50.906;4.438;2023-02-28T01:14:32;10.60;;;10.00;;
19905;SDS011;10115;50.906;4.438;2023-02-28T01:16:59;9.97;;;9.33;;
19905;SDS011;10115;50.906;4.438;2023-02-28T01:19:25;10.13;;;9.50;;
19905;SDS011;10115;50.906;4.438;2023-02-28T01:21:51;9.93;;;9.40;;
19905;SDS011;10115;50.906;4.438;2023-02-28T01:24:16;9.63;;;9.03;;
19905;SDS011;10115;50.906;4.438;2023-02-28T01:26:42;9.77;;;9.07;;
19905;SDS011;10115;50.906;4.438;2023-02-28T01:29:08;11.43;;;10.73;;
19905;SDS011;10115;50.906;4.438;2023-02-28T01:31:33;10.93;;;10.23;;
19905;SDS011;10115;50.906;4.438;2023-02-28T01:33:59;9.43;;;8.93;;
19905;SDS011;10115;50.906;4.438;2023-02-28T01:36:25;10.70;;;9.97;;
19905;SDS011;10115;50.906;4.438;2023-02-28T01:38:51;10.60;;;9.57;;
19905;SDS011;10115;50.906;4.438;2023-02-28T01:41:19;9.60;;;9.03;;
19905;SDS011;10115;50.906;4.438;2023-02-28T01:46:32;10.00;;;9.23;;
19905;SDS011;10115;50.906;4.438;2023-02-28T01:54:26;10.73;;;10.03;;
19905;SDS011;10115;50.906;4.438;2023-02-28T01:59:42;8.73;;;8.13;;
19905;SDS011;10115;50.906;4.438;2023-02-28T02:02:13;9.70;;;9.20;;
19905;SDS011;10115;50.906;4.438;2023-02-28T02:05:03;9.07;;;8.57;;
19905;SDS011;10115;50.906;4.438;2023-02-28T02:07:36;10.43;;;9.63;;
19905;SDS011;10115;50.906;4.438;2023-02-28T02:10:05;11.63;;;10.43;;
19905;SDS011;10115;50.906;4.438;2023-02-28T02:15:34;11.23;;;10.50;;
19905;SDS011;10115;50.906;4.438;2023-02-28T02:18:09;10.50;;;9.83;;
19905;SDS011;10115;50.906;4.438;2023-02-28T02:35:12;10.73;;;10.13;;
19905;SDS011;10115;50.906;4.438;2023-02-28T02:40:23;12.07;;;11.07;;
19905;SDS011;10115;50.906;4.438;2023-02-28T02:42:56;10.07;;;9.47;;
19905;SDS011;10115;50.906;4.438;2023-02-28T02:48:03;9.70;;;8.70;;
19905;SDS011;10115;50.906;4.438;2023-02-28T02:50:37;15.00;;;10.43;;
19905;SDS011;10115;50.906;4.438;2023-02-28T02:53:15;10.27;;;9.50;;
19905;SDS011;10115;50.906;4.438;2023-02-28T02:55:47;11.60;;;10.70;;
19905;SDS011;10115;50.906;4.438;2023-02-28T02:58:19;11.80;;;10.77;;
19905;SDS011;10115;50.906;4.438;2023-02-28T03:00:50;10.47;;;9.93;;
19905;SDS011;10115;50.906;4.438;2023-02-28T03:03:19;10.70;;;10.20;;
19905;SDS011;10115;50.906;4.438;2023-02-28T03:05:53;11.17;;;10.37;;
19905;SDS011;10115;50.906;4.438;2023-02-28T03:08:20;11.27;;;10.57;;
19905;SDS011;10115;50.906;4.438;2023-02-28T03:10:47;11.27;;;10.57;;
19905;SDS011;10115;50.906;4.438;2023-02-28T03:16:12;9.43;;;8.97;;
19905;SDS011;10115;50.906;4.438;2023-02-28T03:18:49;11.10;;;10.00;;
19905;SDS011;10115;50.906;4.438;2023-02-28T03:27:06;10.93;;;10.30;;
19905;SDS011;10115;50.906;4.438;2023-02-28T03:29:42;11.90;;;10.97;;
19905;SDS011;10115;50.906;4.438;2023-02-28T03:32:28;9.63;;;9.07;;
19905;SDS011;10115;50.906;4.438;2023-02-28T03:35:14;11.87;;;10.90;;
19905;SDS011;10115;50.906;4.438;2023-02-28T03:37:46;10.80;;;10.20;;
19905;SDS011;10115;50.906;4.438;2023-02-28T03:40:21;12.03;;;11.40;;
19905;SDS011;10115;50.906;4.438;2023-02-28T03:42:51;12.47;;;11.37;;
19905;SDS011;10115;50.906;4.438;2023-02-28T03:45:28;12.20;;;11.20;;
19905;SDS011;10115;50.906;4.438;2023-02-28T03:48:00;12.57;;;11.40;;
19905;SDS011;10115;50.906;4.438;2023-02-28T03:50:47;11.97;;;11.27;;
19905;SDS011;10115;50.906;4.438;2023-02-28T03:53:19;11.80;;;10.73;;
19905;SDS011;10115;50.906;4.438;2023-02-28T03:55:49;11.63;;;10.87;;
19905;SDS011;10115;50.906;4.438;2023-02-28T04:01:52;9.30;;;8.80;;
19905;SDS011;10115;50.906;4.438;2023-02-28T04:03:50;11.17;;;10.20;;
19905;SDS011;10115;50.906;4.438;2023-02-28T04:06:21;11.97;;;10.80;;
19905;SDS011;10115;50.906;4.438;2023-02-28T04:08:47;11.57;;;10.77;;
19905;SDS011;10115;50.906;4.438;2023-02-28T04:11:18;10.37;;;9.77;;
19905;SDS011;10115;50.906;4.438;2023-02-28T04:14:05;14.03;;;11.03;;
19905;SDS011;10115;50.906;4.438;2023-02-28T04:16:33;11.23;;;10.13;;
19905;SDS011;10115;50.906;4.438;2023-02-28T04:19:00;11.27;;;10.60;;
19905;SDS011;10115;50.906;4.438;2023-02-28T04:21:31;10.93;;;10.23;;
19905;SDS011;10115;50.906;4.438;2023-02-28T04:23:59;12.80;;;12.00;;
19905;SDS011;10115;50.906;4.438;2023-02-28T04:26:32;11.53;;;10.83;;
19905;SDS011;10115;50.906;4.438;2023-02-28T04:28:59;22.53;;;10.20;;
19905;SDS011;10115;50.906;4.438;2023-02-28T04:31:25;9.73;;;9.20;;
19905;SDS011;10115;50.906;4.438;2023-02-28T04:33:51;11.63;;;10.83;;
19905;SDS011;10115;50.906;4.438;2023-02-28T04:36:17;13.50;;;10.00;;
19905;SDS011;10115;50.906;4.438;2023-02-28T04:38:43;11.70;;;10.80;;
19905;SDS011;10115;50.906;4.438;2023-02-28T04:41:09;10.27;;;9.77;;
19905;SDS011;10115;50.906;4.438;2023-02-28T04:43:35;13.20;;;12.40;;
19905;SDS011;10115;50.906;4.438;2023-02-28T04:46:01;11.30;;;10.67;;
19905;SDS011;10115;50.906;4.438;2023-02-28T04:48:29;10.47;;;9.87;;
19905;SDS011;10115;50.906;4.438;2023-02-28T04:51:04;11.50;;;10.70;;
19905;SDS011;10115;50.906;4.438;2023-02-28T04:53:31;12.43;;;11.47;;
19905;SDS011;10115;50.906;4.438;2023-02-28T04:55:57;13.57;;;12.63;;
19905;SDS011;10115;50.906;4.438;2023-02-28T04:58:23;10.47;;;9.97;;
19905;SDS011;10115;50.906;4.438;2023-02-28T05:00:52;10.87;;;10.27;;
19905;SDS011;10115;50.906;4.438;2023-02-28T05:03:19;12.50;;;11.77;;
19905;SDS011;10115;50.906;4.438;2023-02-28T05:05:48;10.27;;;9.67;;
19905;SDS011;10115;50.906;4.438;2023-02-28T05:08:13;9.27;;;8.67;;
19905;SDS011;10115;50.906;4.438;2023-02-28T05:10:39;11.40;;;10.63;;
19905;SDS011;10115;50.906;4.438;2023-02-28T05:13:05;10.53;;;9.70;;
19905;SDS011;10115;50.906;4.438;2023-02-28T05:15:30;11.77;;;10.83;;
19905;SDS011;10115;50.906;4.438;2023-02-28T05:17:56;9.90;;;9.17;;
19905;SDS011;10115;50.906;4.438;2023-02-28T05:20:21;9.73;;;9.13;;
19905;SDS011;10115;50.906;4.438;2023-02-28T05:22:47;9.43;;;8.77;;
19905;SDS011;10115;50.906;4.438;2023-02-28T05:25:17;10.57;;;9.77;;
19905;SDS011;10115;50.906;4.438;2023-02-28T05:27:45;9.73;;;9.03;;
19905;SDS011;10115;50.906;4.438;2023-02-28T05:30:11;10.30;;;9.70;;
19905;SDS011;10115;50.906;4.438;2023-02-28T05:32:37;11.03;;;10.43;;
19905;SDS011;10115;50.906;4.438;2023-02-28T05:35:04;12.30;;;10.90;;
19905;SDS011;10115;50.906;4.438;2023-02-28T05:37:30;13.70;;;12.70;;
19905;SDS011;10115;50.906;4.438;2023-02-28T05:39:56;11.40;;;10.60;;
19905;SDS011;10115;50.906;4.438;2023-02-28T05:42:21;10.67;;;9.97;;
19905;SDS011;10115;50.906;4.438;2023-02-28T05:44:49;11.07;;;10.37;;
19905;SDS011;10115;50.906;4.438;2023-02-28T05:47:15;9.90;;;9.30;;
19905;SDS011;10115;50.906;4.438;2023-02-28T05:49:41;12.20;;;11.17;;
19905;SDS011;10115;50.906;4.438;2023-02-28T05:52:07;10.97;;;10.17;;
19905;SDS011;10115;50.906;4.438;2023-02-28T05:54:33;11.37;;;10.47;;
19905;SDS011;10115;50.906;4.438;2023-02-28T05:56:59;10.17;;;9.47;;
19905;SDS011;10115;50.906;4.438;2023-02-28T05:59:24;11.63;;;10.70;;
19905;SDS011;10115;50.906;4.438;2023-02-28T06:01:50;9.23;;;8.80;;
19905;SDS011;10115;50.906;4.438;2023-02-28T06:04:18;13.20;;;8.97;;
19905;SDS011;10115;50.906;4.438;2023-02-28T06:06:45;9.17;;;8.63;;
19905;SDS011;10115;50.906;4.438;2023-02-28T06:09:12;12.17;;;11.47;;
19905;SDS011;10115;50.906;4.438;2023-02-28T06:11:38;10.27;;;9.63;;
19905;SDS011;10115;50.906;4.438;2023-02-28T06:14:04;11.20;;;10.50;;
19905;SDS011;10115;50.906;4.438;2023-02-28T06:16:31;10.03;;;9.43;;
19905;SDS011;10115;50.906;4.438;2023-02-28T06:18:59;12.27;;;11.07;;
19905;SDS011;10115;50.906;4.438;2023-02-28T06:21:26;10.33;;;9.57;;
19905;SDS011;10115;50.906;4.438;2023-02-28T06:23:56;10.53;;;9.87;;
19905;SDS011;10115;50.906;4.438;2023-02-28T06:26:22;9.50;;;8.87;;
19905;SDS011;10115;50.906;4.438;2023-02-28T06:28:48;10.03;;;9.27;;
19905;SDS011;10115;50.906;4.438;2023-02-28T06:31:15;10.27;;;9.67;;
19905;SDS011;10115;50.906;4.438;2023-02-28T06:33:43;10.03;;;9.47;;
19905;SDS011;10115;50.906;4.438;2023-02-28T06:36:10;11.50;;;10.70;;
19905;SDS011;10115;50.906;4.438;2023-02-28T06:38:37;10.87;;;10.20;;
19905;SDS011;10115;50.906;4.438;2023-02-28T06:41:03;10.30;;;9.63;;
19905;SDS011;10115;50.906;4.438;2023-02-28T06:43:32;10.93;;;10.17;;
19905;SDS011;10115;50.906;4.438;2023-02-28T06:46:00;10.67;;;9.97;;
19905;SDS011;10115;50.906;4.438;2023-02-28T06:48:28;11.60;;;10.60;;
19905;SDS011;10115;50.906;4.438;2023-02-28T06:51:03;10.50;;;9.70;;
19905;SDS011;10115;50.906;4.438;2023-02-28T06:53:30;11.87;;;10.77;;
19905;SDS011;10115;50.906;4.438;2023-02-28T06:55:56;10.57;;;9.87;;
19905;SDS011;10115;50.906;4.438;2023-02-28T06:58:22;9.63;;;8.93;;
19905;SDS011;10115;50.906;4.438;2023-02-28T07:00:50;10.67;;;9.87;;
19905;SDS011;10115;50.906;4.438;2023-02-28T07:03:17;11.03;;;10.30;;
19905;SDS011;10115;50.906;4.438;2023-02-28T07:05:43;9.47;;;8.77;;
19905;SDS011;10115;50.906;4.438;2023-02-28T07:08:10;10.77;;;9.67;;
19905;SDS011;10115;50.906;4.438;2023-02-28T07:10:39;11.70;;;10.90;;
19905;SDS011;10115;50.906;4.438;2023-02-28T07:13:06;9.27;;;8.70;;
19905;SDS011;10115;50.906;4.438;2023-02-28T07:15:33;9.63;;;9.03;;
19905;SDS011;10115;50.906;4.438;2023-02-28T07:18:00;9.77;;;9.17;;
19905;SDS011;10115;50.906;4.438;2023-02-28T07:20:25;10.00;;;9.40;;
19905;SDS011;10115;50.906;4.438;2023-02-28T07:22:51;9.10;;;8.50;;
19905;SDS011;10115;50.906;4.438;2023-02-28T07:25:25;9.13;;;8.53;;
19905;SDS011;10115;50.906;4.438;2023-02-28T07:27:52;9.87;;;9.27;;
19905;SDS011;10115;50.906;4.438;2023-02-28T07:30:18;9.70;;;8.90;;
19905;SDS011;10115;50.906;4.438;2023-02-28T07:32:44;10.03;;;9.30;;
19905;SDS011;10115;50.906;4.438;2023-02-28T07:35:10;11.00;;;10.17;;
19905;SDS011;10115;50.906;4.438;2023-02-28T07:37:36;10.17;;;9.67;;
19905;SDS011;10115;50.906;4.438;2023-02-28T07:40:03;9.43;;;8.73;;
19905;SDS011;10115;50.906;4.438;2023-02-28T07:42:33;10.27;;;9.57;;
19905;SDS011;10115;50.906;4.438;2023-02-28T07:44:59;10.97;;;10.10;;
19905;SDS011;10115;50.906;4.438;2023-02-28T07:47:26;9.63;;;9.03;;
19905;SDS011;10115;50.906;4.438;2023-02-28T07:49:51;9.93;;;9.23;;
19905;SDS011;10115;50.906;4.438;2023-02-28T07:52:17;10.40;;;9.67;;
19905;SDS011;10115;50.906;4.438;2023-02-28T07:54:43;9.30;;;8.47;;
19905;SDS011;10115;50.906;4.438;2023-02-28T07:57:09;8.80;;;8.07;;
19905;SDS011;10115;50.906;4.438;2023-02-28T07:59:35;8.70;;;8.13;;
19905;SDS011;10115;50.906;4.438;2023-02-28T08:02:01;10.07;;;9.13;;
19905;SDS011;10115;50.906;4.438;2023-02-28T08:04:26;8.67;;;7.87;;
19905;SDS011;10115;50.906;4.438;2023-02-28T08:06:52;9.67;;;8.97;;
19905;SDS011;10115;50.906;4.438;2023-02-28T08:09:18;9.53;;;8.97;;
19905;SDS011;10115;50.906;4.438;2023-02-28T08:11:44;9.10;;;8.40;;
19905;SDS011;10115;50.906;4.438;2023-02-28T08:14:10;9.60;;;8.73;;
19905;SDS011;10115;50.906;4.438;2023-02-28T08:16:35;9.10;;;8.47;;
19905;SDS011;10115;50.906;4.438;2023-02-28T08:19:02;10.37;;;9.47;;
19905;SDS011;10115;50.906;4.438;2023-02-28T08:21:28;9.07;;;8.43;;
19905;SDS011;10115;50.906;4.438;2023-02-28T08:23:53;10.33;;;9.63;;
19905;SDS011;10115;50.906;4.438;2023-02-28T08:26:19;8.53;;;8.03;;
19905;SDS011;10115;50.906;4.438;2023-02-28T08:28:45;8.77;;;8.27;;
19905;SDS011;10115;50.906;4.438;2023-02-28T08:31:12;9.87;;;9.00;;
19905;SDS011;10115;50.906;4.438;2023-02-28T08:33:40;8.73;;;8.03;;
19905;SDS011;10115;50.906;4.438;2023-02-28T08:36:06;8.70;;;7.83;;
19905;SDS011;10115;50.906;4.438;2023-02-28T08:38:33;8.57;;;7.87;;
19905;SDS011;10115;50.906;4.438;2023-02-28T08:41:00;7.30;;;6.90;;
19905;SDS011;10115;50.906;4.438;2023-02-28T08:43:31;7.60;;;7.20;;
19905;SDS011;10115;50.906;4.438;2023-02-28T08:45:56;7.63;;;7.27;;
19905;SDS011;10115;50.906;4.438;2023-02-28T08:48:26;7.97;;;7.57;;
19905;SDS011;10115;50.906;4.438;2023-02-28T08:50:59;8.07;;;7.67;;
19905;SDS011;10115;50.906;4.438;2023-02-28T08:53:34;8.03;;;7.53;;
19905;SDS011;10115;50.906;4.438;2023-02-28T08:56:05;7.47;;;7.07;;
19905;SDS011;10115;50.906;4.438;2023-02-28T08:58:35;7.50;;;7.17;;
19905;SDS011;10115;50.906;4.438;2023-02-28T09:01:07;7.60;;;7.20;;
19905;SDS011;10115;50.906;4.438;2023-02-28T09:03:37;8.50;;;7.90;;
19905;SDS011;10115;50.906;4.438;2023-02-28T09:06:09;7.13;;;6.83;;
19905;SDS011;10115;50.906;4.438;2023-02-28T09:08:36;8.13;;;7.57;;
19905;SDS011;10115;50.906;4.438;2023-02-28T09:11:02;8.37;;;7.57;;
19905;SDS011;10115;50.906;4.438;2023-02-28T09:13:28;8.90;;;8.07;;
19905;SDS011;10115;50.906;4.438;2023-02-28T09:15:56;9.30;;;7.03;;
19905;SDS011;10115;50.906;4.438;2023-02-28T09:18:23;8.60;;;8.10;;
19905;SDS011;10115;50.906;4.438;2023-02-28T09:20:49;7.80;;;7.40;;
19905;SDS011;10115;50.906;4.438;2023-02-28T09:23:15;8.07;;;7.67;;
19905;SDS011;10115;50.906;4.438;2023-02-28T09:25:45;6.93;;;6.63;;
19905;SDS011;10115;50.906;4.438;2023-02-28T09:28:18;8.40;;;7.83;;
19905;SDS011;10115;50.906;4.438;2023-02-28T09:30:45;8.40;;;7.97;;
19905;SDS011;10115;50.906;4.438;2023-02-28T09:33:15;7.07;;;6.57;;
19905;SDS011;10115;50.906;4.438;2023-02-28T09:35:43;11.70;;;7.27;;
19905;SDS011;10115;50.906;4.438;2023-02-28T09:38:10;8.37;;;7.97;;
19905;SDS011;10115;50.906;4.438;2023-02-28T09:40:40;7.77;;;7.33;;
19905;SDS011;10115;50.906;4.438;2023-02-28T09:43:16;7.80;;;7.50;;
19905;SDS011;10115;50.906;4.438;2023-02-28T09:45:47;6.60;;;6.30;;
19905;SDS011;10115;50.906;4.438;2023-02-28T09:48:26;7.70;;;7.33;;
19905;SDS011;10115;50.906;4.438;2023-02-28T09:51:01;8.37;;;6.97;;
19905;SDS011;10115;50.906;4.438;2023-02-28T09:53:33;7.67;;;7.17;;
19905;SDS011;10115;50.906;4.438;2023-02-28T09:56:10;8.47;;;7.97;;
19905;SDS011;10115;50.906;4.438;2023-02-28T09:58:49;8.43;;;7.87;;
19905;SDS011;10115;50.906;4.438;2023-02-28T10:01:37;8.00;;;7.40;;
19905;SDS011;10115;50.906;4.438;2023-02-28T10:06:46;7.60;;;7.20;;
19905;SDS011;10115;50.906;4.438;2023-02-28T10:09:26;7.60;;;7.20;;
19905;SDS011;10115;50.906;4.438;2023-02-28T10:11:56;8.33;;;7.87;;
19905;SDS011;10115;50.906;4.438;2023-02-28T10:14:29;7.47;;;7.07;;
19905;SDS011;10115;50.906;4.438;2023-02-28T10:16:59;7.63;;;7.23;;
19905;SDS011;10115;50.906;4.438;2023-02-28T10:22:08;6.93;;;6.63;;
19905;SDS011;10115;50.906;4.438;2023-02-28T10:24:45;7.77;;;7.30;;
19905;SDS011;10115;50.906;4.438;2023-02-28T10:27:31;7.77;;;7.37;;
19905;SDS011;10115;50.906;4.438;2023-02-28T10:29:58;6.90;;;6.50;;
19905;SDS011;10115;50.906;4.438;2023-02-28T10:32:35;7.90;;;7.30;;
19905;SDS011;10115;50.906;4.438;2023-02-28T10:37:37;7.27;;;6.97;;
19905;SDS011;10115;50.906;4.438;2023-02-28T10:40:46;7.03;;;6.67;;
19905;SDS011;10115;50.906;4.438;2023-02-28T10:43:05;6.97;;;6.67;;
19905;SDS011;10115;50.906;4.438;2023-02-28T10:50:54;6.93;;;6.53;;
19905;SDS011;10115;50.906;4.438;2023-02-28T10:53:25;6.77;;;6.47;;
19905;SDS011;10115;50.906;4.438;2023-02-28T10:56:04;6.40;;;6.10;;
19905;SDS011;10115;50.906;4.438;2023-02-28T11:01:47;7.13;;;6.70;;
19905;SDS011;10115;50.906;4.438;2023-02-28T11:09:33;8.23;;;7.87;;
19905;SDS011;10115;50.906;4.438;2023-02-28T11:12:00;7.63;;;7.23;;
19905;SDS011;10115;50.906;4.438;2023-02-28T11:14:30;7.33;;;6.93;;
19905;SDS011;10115;50.906;4.438;2023-02-28T11:17:00;6.93;;;6.63;;
19905;SDS011;10115;50.906;4.438;2023-02-28T11:19:46;7.00;;;6.60;;
19905;SDS011;10115;50.906;4.438;2023-02-28T11:22:19;7.50;;;7.03;;
19905;SDS011;10115;50.906;4.438;2023-02-28T11:24:53;7.17;;;6.80;;
19905;SDS011;10115;50.906;4.438;2023-02-28T11:30:05;6.93;;;6.63;;
19905;SDS011;10115;50.906;4.438;2023-02-28T11:32:52;7.40;;;7.00;;
19905;SDS011;10115;50.906;4.438;2023-02-28T11:35:21;6.30;;;6.00;;
19905;SDS011;10115;50.906;4.438;2023-02-28T11:37:51;6.57;;;6.27;;
19905;SDS011;10115;50.906;4.438;2023-02-28T11:40:33;7.47;;;7.07;;
19905;SDS011;10115;50.906;4.438;2023-02-28T11:48:27;7.77;;;7.27;;
19905;SDS011;10115;50.906;4.438;2023-02-28T11:51:15;6.23;;;5.93;;
19905;SDS011;10115;50.906;4.438;2023-02-28T12:04:28;6.90;;;6.60;;
19905;SDS011;10115;50.906;4.438;2023-02-28T12:09:59;7.63;;;7.13;;
19905;SDS011;10115;50.906;4.438;2023-02-28T12:18:23;6.70;;;6.40;;
19905;SDS011;10115;50.906;4.438;2023-02-28T12:21:04;7.43;;;7.03;;
19905;SDS011;10115;50.906;4.438;2023-02-28T12:26:46;7.13;;;6.67;;
19905;SDS011;10115;50.906;4.438;2023-02-28T12:29:47;6.97;;;6.67;;
19905;SDS011;10115;50.906;4.438;2023-02-28T12:34:47;6.63;;;6.33;;
19905;SDS011;10115;50.906;4.438;2023-02-28T12:38:01;6.60;;;6.30;;
19905;SDS011;10115;50.906;4.438;2023-02-28T12:40:21;6.43;;;6.10;;
19905;SDS011;10115;50.906;4.438;2023-02-28T12:43:03;7.13;;;6.63;;
19905;SDS011;10115;50.906;4.438;2023-02-28T12:48:04;6.23;;;5.93;;
19905;SDS011;10115;50.906;4.438;2023-02-28T12:50:33;7.20;;;6.77;;
19905;SDS011;10115;50.906;4.438;2023-02-28T12:55:48;7.33;;;6.93;;
19905;SDS011;10115;50.906;4.438;2023-02-28T12:58:33;6.70;;;6.30;;
19905;SDS011;10115;50.906;4.438;2023-02-28T13:09:40;6.87;;;6.57;;
19905;SDS011;10115;50.906;4.438;2023-02-28T13:12:24;7.33;;;6.93;;
19905;SDS011;10115;50.906;4.438;2023-02-28T13:14:51;6.40;;;6.00;;
19905;SDS011;10115;50.906;4.438;2023-02-28T13:17:49;6.73;;;6.30;;
19905;SDS011;10115;50.906;4.438;2023-02-28T13:20:21;7.00;;;6.40;;
19905;SDS011;10115;50.906;4.438;2023-02-28T13:22:54;15.40;;;7.10;;
19905;SDS011;10115;50.906;4.438;2023-02-28T13:27:51;6.60;;;6.30;;
19905;SDS011;10115;50.906;4.438;2023-02-28T13:33:37;7.40;;;6.90;;
19905;SDS011;10115;50.906;4.438;2023-02-28T13:36:26;7.00;;;6.60;;
19905;SDS011;10115;50.906;4.438;2023-02-28T13:38:57;7.20;;;6.80;;
19905;SDS011;10115;50.906;4.438;2023-02-28T13:44:01;6.60;;;6.30;;
19905;SDS011;10115;50.906;4.438;2023-02-28T13:46:31;6.50;;;6.20;;
19905;SDS011;10115;50.906;4.438;2023-02-28T13:49:40;6.47;;;6.17;;
19905;SDS011;10115;50.906;4.438;2023-02-28T13:54:56;7.30;;;6.90;;
19905;SDS011;10115;50.906;4.438;2023-02-28T14:00:57;6.63;;;6.23;;
19905;SDS011;10115;50.906;4.438;2023-02-28T14:06:36;6.70;;;6.30;;
19905;SDS011;10115;50.906;4.438;2023-02-28T14:09:06;6.47;;;6.17;;
19905;SDS011;10115;50.906;4.438;2023-02-28T14:11:52;6.83;;;6.33;;
19905;SDS011;10115;50.906;4.438;2023-02-28T14:17:06;5.93;;;5.57;;
19905;SDS011;10115;50.906;4.438;2023-02-28T14:19:37;7.20;;;6.53;;
19905;SDS011;10115;50.906;4.438;2023-02-28T14:22:12;5.63;;;5.33;;
19905;SDS011;10115;50.906;4.438;2023-02-28T14:43:56;6.10;;;5.60;;
19905;SDS011;10115;50.906;4.438;2023-02-28T14:46:25;5.67;;;5.37;;
19905;SDS011;10115;50.906;4.438;2023-02-28T14:49:04;6.80;;;6.30;;
19905;SDS011;10115;50.906;4.438;2023-02-28T14:51:32;5.80;;;5.50;;
19905;SDS011;10115;50.906;4.438;2023-02-28T14:53:59;5.77;;;5.47;;
19905;SDS011;10115;50.906;4.438;2023-02-28T14:56:33;5.83;;;5.40;;
19905;SDS011;10115;50.906;4.438;2023-02-28T14:59:01;5.70;;;5.40;;
19905;SDS011;10115;50.906;4.438;2023-02-28T15:01:27;5.90;;;5.57;;
19905;SDS011;10115;50.906;4.438;2023-02-28T15:03:57;6.17;;;5.37;;
19905;SDS011;10115;50.906;4.438;2023-02-28T15:06:27;6.47;;;5.97;;
19905;SDS011;10115;50.906;4.438;2023-02-28T15:09:11;5.97;;;5.67;;
19905;SDS011;10115;50.906;4.438;2023-02-28T15:11:40;5.90;;;5.60;;
19905;SDS011;10115;50.906;4.438;2023-02-28T15:14:07;6.13;;;5.73;;
19905;SDS011;10115;50.906;4.438;2023-02-28T15:16:39;5.83;;;5.53;;
19905;SDS011;10115;50.906;4.438;2023-02-28T15:19:14;8.53;;;6.07;;
19905;SDS011;10115;50.906;4.438;2023-02-28T15:21:48;5.60;;;5.30;;
19905;SDS011;10115;50.906;4.438;2023-02-28T15:26:54;5.53;;;5.17;;
19905;SDS011;10115;50.906;4.438;2023-02-28T15:29:27;5.57;;;5.27;;
19905;SDS011;10115;50.906;4.438;2023-02-28T15:32:06;9.63;;;5.03;;
19905;SDS011;10115;50.906;4.438;2023-02-28T15:34:37;5.83;;;5.43;;
19905;SDS011;10115;50.906;4.438;2023-02-28T15:40:10;5.47;;;5.13;;
19905;SDS011;10115;50.906;4.438;2023-02-28T15:43:12;5.67;;;5.33;;
19905;SDS011;10115;50.906;4.438;2023-02-28T15:45:55;6.30;;;5.90;;
19905;SDS011;10115;50.906;4.438;2023-02-28T15:48:30;6.43;;;6.03;;
19905;SDS011;10115;50.906;4.438;2023-02-28T15:51:24;5.93;;;5.63;;
19905;SDS011;10115;50.906;4.438;2023-02-28T15:53:57;6.03;;;5.60;;
19905;SDS011;10115;50.906;4.438;2023-02-28T15:56:31;5.67;;;5.37;;
19905;SDS011;10115;50.906;4.438;2023-02-28T15:59:03;6.63;;;6.00;;
19905;SDS011;10115;50.906;4.438;2023-02-28T16:01:35;6.43;;;5.30;;
19905;SDS011;10115;50.906;4.438;2023-02-28T16:04:04;6.37;;;5.87;;
19905;SDS011;10115;50.906;4.438;2023-02-28T16:06:44;6.87;;;6.27;;
19905;SDS011;10115;50.906;4.438;2023-02-28T16:09:12;7.43;;;6.73;;
19905;SDS011;10115;50.906;4.438;2023-02-28T16:11:48;5.90;;;5.60;;
19905;SDS011;10115;50.906;4.438;2023-02-28T16:14:21;6.40;;;6.03;;
19905;SDS011;10115;50.906;4.438;2023-02-28T16:16:52;5.90;;;5.50;;
19905;SDS011;10115;50.906;4.438;2023-02-28T16:19:20;6.67;;;6.27;;
19905;SDS011;10115;50.906;4.438;2023-02-28T16:21:46;6.67;;;6.33;;
19905;SDS011;10115;50.906;4.438;2023-02-28T16:24:13;6.70;;;6.30;;
19905;SDS011;10115;50.906;4.438;2023-02-28T16:26:40;7.00;;;6.33;;
19905;SDS011;10115;50.906;4.438;2023-02-28T16:29:08;6.47;;;6.17;;
19905;SDS011;10115;50.906;4.438;2023-02-28T16:31:38;5.83;;;5.60;;
19905;SDS011;10115;50.906;4.438;2023-02-28T16:34:04;6.73;;;6.43;;
19905;SDS011;10115;50.906;4.438;2023-02-28T16:36:30;6.80;;;6.40;;
19905;SDS011;10115;50.906;4.438;2023-02-28T16:38:56;7.07;;;6.47;;
19905;SDS011;10115;50.906;4.438;2023-02-28T16:41:23;7.33;;;6.83;;
19905;SDS011;10115;50.906;4.438;2023-02-28T16:43:52;7.20;;;6.80;;
19905;SDS011;10115;50.906;4.438;2023-02-28T16:46:23;7.57;;;7.00;;
19905;SDS011;10115;50.906;4.438;2023-02-28T16:48:52;7.40;;;6.87;;
19905;SDS011;10115;50.906;4.438;2023-02-28T16:51:18;7.10;;;6.70;;
19905;SDS011;10115;50.906;4.438;2023-02-28T16:53:44;7.20;;;6.60;;
19905;SDS011;10115;50.906;4.438;2023-02-28T16:56:14;5.87;;;5.67;;
19905;SDS011;10115;50.906;4.438;2023-02-28T16:58:43;6.47;;;6.17;;
19905;SDS011;10115;50.906;4.438;2023-02-28T17:01:09;7.43;;;6.83;;
19905;SDS011;10115;50.906;4.438;2023-02-28T17:03:35;6.90;;;6.50;;
19905;SDS011;10115;50.906;4.438;2023-02-28T17:06:02;8.17;;;7.57;;
19905;SDS011;10115;50.906;4.438;2023-02-28T17:08:29;10.17;;;6.53;;
19905;SDS011;10115;50.906;4.438;2023-02-28T17:10:56;7.40;;;7.00;;
19905;SDS011;10115;50.906;4.438;2023-02-28T17:13:23;7.40;;;7.00;;
19905;SDS011;10115;50.906;4.438;2023-02-28T17:15:49;7.00;;;6.60;;
19905;SDS011;10115;50.906;4.438;2023-02-28T17:18:15;7.40;;;7.00;;
19905;SDS011;10115;50.906;4.438;2023-02-28T17:20:47;7.47;;;6.97;;
19905;SDS011;10115;50.906;4.438;2023-02-28T17:23:14;8.43;;;7.93;;
19905;SDS011;10115;50.906;4.438;2023-02-28T17:25:40;7.37;;;6.87;;
19905;SDS011;10115;50.906;4.438;2023-02-28T17:28:06;7.93;;;7.30;;
19905;SDS011;10115;50.906;4.438;2023-02-28T17:30:33;7.57;;;7.17;;
19905;SDS011;10115;50.906;4.438;2023-02-28T17:33:00;6.80;;;6.40;;
19905;SDS011;10115;50.906;4.438;2023-02-28T17:35:25;7.43;;;6.97;;
19905;SDS011;10115;50.906;4.438;2023-02-28T17:37:52;12.13;;;7.90;;